Albany, Vermont
Current Conditions -  °F | °C
As of 9:15 AM on Thursday 27 Nov 2014 (Local Time) from KEFK Reporting Station
Overcast Overcast  
Wind Chill: 14°   Ceiling: 4300
Heat Index: 24°   Visibility: 10mi
Dew Point: 19°   Wind: 10mph
Humidity: 81%   Direction: 10°N
Pressure: 29.96"   Gusts: NA
Location:  44.73°N, 72.38°W
Report Text: KEFK 271415Z AUTO 01009KT 10SM OVC043 M04/M07 A2996 RMK AO2 T10421070
Loading
Personal Weather Stations






























Interactive Weather Map New forecast layout! Learn more

10-Day Weather Forecast

Advertisements
Track Severe Weather on mobile